createdAt,value
2023-10-11T00:01:23.958Z,34.97
2023-10-11T00:04:27.999Z,36.33
2023-10-11T00:07:33.417Z,42.97
2023-10-11T00:10:44.949Z,31.50
2023-10-11T00:13:47.761Z,30.48
2023-10-11T00:16:54.369Z,33.47
2023-10-11T00:19:57.496Z,35.03
2023-10-11T00:23:03.136Z,35.97
2023-10-11T00:26:08.080Z,35.10
2023-10-11T00:29:14.530Z,36.40
2023-10-11T00:32:17.118Z,31.70
2023-10-11T00:35:20.560Z,31.33
2023-10-11T00:38:28.402Z,30.25
2023-10-11T00:41:35.322Z,28.27
2023-10-11T00:44:39.635Z,29.00
2023-10-11T00:47:43.257Z,31.33
2023-10-11T00:50:45.977Z,28.02
2023-10-11T00:53:48.981Z,31.35
2023-10-11T00:56:53.101Z,36.75
2023-10-11T00:59:56.824Z,30.00
2023-10-11T01:03:00.256Z,32.50
2023-10-11T01:06:04.753Z,29.10
2023-10-11T01:09:23.040Z,35.78
2023-10-11T01:12:25.958Z,25.10
2023-10-11T01:15:28.299Z,31.75
2023-10-11T01:18:31.080Z,30.20
2023-10-11T01:21:34.300Z,33.47
2023-10-11T01:24:37.005Z,31.48
2023-10-11T01:27:42.355Z,29.17
2023-10-11T01:30:45.772Z,31.50
2023-10-11T01:33:51.065Z,29.80
2023-10-11T01:36:54.487Z,30.42
2023-10-11T01:39:58.389Z,29.98
2023-10-11T01:43:05.159Z,29.30
2023-10-11T01:46:08.414Z,32.15
2023-10-11T01:49:14.717Z,29.23
2023-10-11T01:52:17.241Z,30.65
2023-10-11T01:55:20.082Z,30.42
2023-10-11T01:58:22.493Z,29.15
2023-10-11T02:01:28.331Z,28.15
2023-10-11T02:04:31.577Z,32.90
2023-10-11T02:07:33.964Z,29.30
2023-10-11T02:10:37.707Z,31.55
2023-10-11T02:13:40.939Z,30.20
2023-10-11T02:16:43.918Z,31.65
2023-10-11T02:19:46.683Z,36.93
2023-10-11T02:22:57.253Z,36.78
2023-10-11T02:25:59.932Z,31.05
2023-10-11T02:29:16.579Z,36.17
2023-10-11T02:32:19.446Z,34.10
2023-10-11T02:35:27.949Z,34.33
2023-10-11T02:38:30.713Z,32.22
2023-10-11T02:41:38.315Z,35.92
2023-10-11T02:44:42.460Z,31.25
2023-10-11T02:47:45.130Z,29.83
2023-10-11T02:50:50.288Z,33.73
2023-10-11T02:53:55.521Z,29.90
2023-10-11T02:56:58.713Z,30.37
2023-10-11T03:00:01.219Z,32.83
2023-10-11T03:03:09.754Z,28.23
2023-10-11T03:06:12.861Z,30.87
2023-10-11T03:09:19.820Z,29.73
2023-10-11T03:12:34.131Z,31.92
2023-10-11T03:15:39.998Z,32.35
2023-10-11T03:18:43.121Z,28.95
2023-10-11T03:21:45.832Z,28.33
2023-10-11T03:25:00.981Z,33.13
2023-10-11T03:28:04.596Z,32.83
2023-10-11T03:31:07.174Z,31.10
2023-10-11T03:34:12.852Z,31.15
2023-10-11T03:37:19.406Z,29.07
2023-10-11T03:40:35.321Z,30.40
2023-10-11T03:43:42.363Z,31.08
2023-10-11T03:46:48.750Z,30.55
2023-10-11T03:49:54.678Z,30.60
2023-10-11T03:53:07.812Z,32.23
2023-10-11T03:56:10.292Z,31.00
2023-10-11T03:59:16.885Z,29.63
2023-10-11T04:02:20.607Z,26.98
2023-10-11T04:05:23.909Z,31.17
2023-10-11T04:08:28.047Z,26.90
2023-10-11T04:11:39.725Z,34.22
2023-10-11T04:14:46.735Z,33.50
2023-10-11T04:17:50.706Z,32.10
2023-10-11T04:21:00.893Z,33.65
2023-10-11T04:27:21.758Z,33.00
2023-10-11T04:30:27.927Z,30.70
2023-10-11T04:33:31.269Z,32.63
2023-10-11T04:36:33.909Z,26.60
2023-10-11T04:39:44.519Z,29.43
2023-10-11T04:43:03.032Z,29.55
2023-10-11T04:46:08.644Z,29.30
2023-10-11T04:49:24.394Z,27.95
2023-10-11T04:52:37.965Z,27.37
2023-10-11T04:55:43.069Z,33.97
2023-10-11T04:58:51.681Z,31.08
2023-10-11T05:01:54.730Z,26.27
2023-10-11T05:04:58.058Z,31.52
2023-10-11T05:08:15.513Z,27.92
2023-10-11T05:11:42.181Z,28.97
2023-10-11T05:14:44.955Z,29.95
2023-10-11T05:18:00.277Z,25.65
2023-10-11T05:21:08.194Z,27.98
2023-10-11T05:24:30.305Z,34.50
2023-10-11T05:27:34.720Z,27.07
2023-10-11T05:30:37.160Z,33.38
2023-10-11T05:33:46.463Z,30.55
2023-10-11T05:37:08.067Z,27.15
2023-10-11T05:40:29.971Z,36.25
2023-10-11T05:43:51.044Z,33.07
2023-10-11T05:47:12.385Z,31.20
2023-10-11T05:50:33.354Z,34.60
2023-10-11T05:53:36.540Z,29.35
2023-10-11T05:56:47.442Z,33.67
2023-10-11T05:59:50.562Z,37.13
2023-10-11T06:02:54.066Z,44.03
2023-10-11T06:05:56.934Z,43.65
2023-10-11T06:09:00.696Z,52.30
2023-10-11T06:12:05.694Z,53.72
2023-10-11T06:15:18.014Z,57.77
2023-10-11T06:18:39.418Z,50.50
2023-10-11T06:21:57.255Z,46.92
2023-10-11T06:25:00.275Z,65.75
2023-10-11T06:28:02.799Z,54.35
2023-10-11T06:31:07.987Z,60.10
2023-10-11T06:34:25.363Z,62.25
2023-10-11T06:37:28.168Z,55.10
2023-10-11T06:40:50.081Z,58.87
2023-10-11T06:43:52.949Z,61.40
2023-10-11T06:46:57.459Z,59.90
2023-10-11T06:50:00.508Z,63.53
2023-10-11T06:53:08.369Z,63.55
2023-10-11T06:56:18.371Z,69.32
2023-10-11T06:59:20.933Z,62.53
2023-10-11T07:02:33.215Z,60.43
2023-10-11T07:05:43.279Z,64.65
2023-10-11T07:08:53.222Z,66.45
2023-10-11T07:12:15.587Z,71.25
2023-10-11T07:15:21.965Z,61.58
2023-10-11T07:18:28.892Z,59.80
2023-10-11T07:21:53.404Z,66.00
2023-10-11T07:25:19.634Z,70.37
2023-10-11T07:28:37.672Z,67.85
2023-10-11T07:31:50.015Z,60.58
2023-10-11T07:34:56.178Z,64.37
2023-10-11T07:38:01.428Z,66.40
2023-10-11T07:41:18.530Z,66.80
2023-10-11T07:44:21.194Z,64.55
2023-10-11T07:47:27.234Z,63.40
2023-10-11T07:50:30.077Z,69.37
2023-10-11T07:53:34.055Z,67.97
2023-10-11T07:56:39.247Z,75.93
2023-10-11T07:59:48.004Z,69.55
2023-10-11T08:03:16.720Z,71.37
2023-10-11T08:06:25.336Z,69.67
2023-10-11T08:09:29.755Z,71.40
2023-10-11T08:12:32.535Z,71.95
2023-10-11T08:15:39.991Z,64.72
2023-10-11T08:18:42.880Z,65.55
2023-10-11T08:21:55.746Z,71.00
2023-10-11T08:24:59.626Z,58.83
2023-10-11T08:28:14.967Z,62.45
2023-10-11T08:31:50.532Z,58.13
2023-10-11T08:34:55.644Z,57.17
2023-10-11T08:38:04.726Z,58.60
2023-10-11T08:41:10.185Z,62.90
2023-10-11T08:44:22.893Z,54.20
2023-10-11T08:47:25.390Z,68.72
2023-10-11T08:50:36.001Z,59.72
2023-10-11T08:53:48.820Z,53.13
2023-10-11T08:56:59.108Z,54.53
2023-10-11T09:00:04.411Z,53.67
2023-10-11T09:03:20.992Z,52.17
2023-10-11T09:06:27.444Z,50.00
2023-10-11T09:09:36.815Z,48.47
2023-10-11T09:12:47.511Z,56.00
2023-10-11T09:15:58.443Z,54.35
2023-10-11T09:19:06.872Z,52.88
2023-10-11T09:22:19.576Z,61.97
2023-10-11T09:25:34.635Z,59.47
2023-10-11T09:28:42.641Z,59.78
2023-10-11T09:32:11.004Z,64.28
2023-10-11T09:35:25.181Z,56.13
2023-10-11T09:38:28.147Z,56.30
2023-10-11T09:41:40.051Z,54.27
2023-10-11T09:44:46.878Z,53.28
2023-10-11T09:47:56.360Z,48.70
2023-10-11T09:51:00.456Z,50.35
2023-10-11T09:54:08.273Z,50.80
2023-10-11T09:57:17.277Z,45.43
2023-10-11T10:00:36.782Z,46.08
2023-10-11T10:03:54.008Z,42.58
2023-10-11T10:07:33.647Z,45.90
2023-10-11T10:10:53.474Z,46.80
2023-10-11T10:14:24.302Z,48.47
2023-10-11T10:17:28.027Z,47.83
2023-10-11T10:20:42.575Z,40.67
2023-10-11T10:23:45.335Z,46.92
2023-10-11T10:26:48.204Z,34.83
2023-10-11T10:30:01.436Z,38.93
2023-10-11T10:33:20.205Z,40.17
2023-10-11T10:36:23.417Z,29.67
2023-10-11T10:39:37.386Z,27.65
2023-10-11T10:42:40.211Z,28.27
2023-10-11T10:45:42.745Z,23.23
2023-10-11T10:48:54.156Z,24.37
2023-10-11T10:51:58.497Z,24.35
2023-10-11T10:55:06.798Z,29.40
2023-10-11T10:58:17.115Z,21.90
2023-10-11T11:01:28.246Z,24.17
2023-10-11T11:04:33.857Z,27.87
2023-10-11T11:07:39.943Z,18.75
2023-10-11T11:10:55.727Z,21.17
2023-10-11T11:13:59.321Z,34.25
2023-10-11T11:17:13.082Z,25.20
2023-10-11T11:20:28.821Z,16.98
2023-10-11T11:23:34.757Z,20.50
2023-10-11T11:26:39.304Z,18.05
2023-10-11T11:29:41.755Z,19.45
2023-10-11T11:32:47.086Z,21.80
2023-10-11T11:35:53.131Z,16.80
2023-10-11T11:38:55.975Z,18.98
2023-10-11T11:41:58.758Z,16.48
2023-10-11T11:45:01.832Z,20.67
2023-10-11T11:48:06.560Z,22.50
2023-10-11T11:51:15.312Z,21.48
2023-10-11T11:54:29.708Z,22.85
2023-10-11T11:57:32.721Z,16.37
2023-10-11T12:00:43.670Z,17.33
2023-10-11T12:03:55.547Z,18.23
2023-10-11T12:06:59.440Z,21.30
2023-10-11T12:10:04.212Z,16.90
2023-10-11T12:13:06.948Z,20.75
2023-10-11T12:16:10.578Z,18.55
2023-10-11T12:19:15.664Z,20.30
2023-10-11T12:22:23.566Z,17.52
2023-10-11T12:25:26.535Z,15.80
2023-10-11T12:28:29.292Z,15.90
2023-10-11T12:31:31.992Z,17.42
2023-10-11T12:34:35.546Z,16.90
2023-10-11T12:37:38.223Z,14.18
2023-10-11T12:40:42.197Z,12.93
2023-10-11T12:43:46.960Z,16.50
2023-10-11T12:46:52.067Z,20.30
2023-10-11T12:49:54.665Z,15.57
2023-10-11T12:52:58.330Z,16.58
2023-10-11T12:56:00.875Z,15.18
2023-10-11T12:59:04.038Z,16.85
2023-10-11T13:02:07.613Z,11.07
2023-10-11T13:05:10.777Z,12.07
2023-10-11T13:08:17.006Z,12.60
2023-10-11T13:11:22.638Z,15.43
2023-10-11T13:14:26.103Z,14.07
2023-10-11T13:17:29.347Z,10.60
2023-10-11T13:20:33.063Z,15.03
2023-10-11T13:23:36.063Z,13.48
2023-10-11T13:26:43.887Z,18.73
2023-10-11T13:29:48.317Z,9.93
2023-10-11T13:32:58.929Z,17.73
2023-10-11T13:36:03.597Z,12.37
2023-10-11T13:39:11.248Z,17.40
2023-10-11T13:42:16.574Z,18.42
2023-10-11T13:45:19.349Z,15.35
2023-10-11T13:48:25.161Z,17.90
2023-10-11T13:51:30.770Z,14.10
2023-10-11T13:54:44.042Z,12.00
2023-10-11T13:57:53.715Z,10.82
2023-10-11T14:00:56.605Z,11.23
2023-10-11T14:04:09.131Z,15.02
2023-10-11T14:07:21.049Z,13.33
2023-10-11T14:10:28.512Z,19.23
2023-10-11T14:13:32.577Z,11.43
2023-10-11T14:16:35.313Z,17.52
2023-10-11T14:19:38.569Z,9.55
2023-10-11T14:22:44.409Z,12.93
2023-10-11T14:25:47.052Z,13.43
2023-10-11T14:28:49.804Z,17.92
2023-10-11T14:31:52.606Z,16.85
2023-10-11T14:34:55.434Z,13.00
2023-10-11T14:37:57.852Z,13.33
2023-10-11T14:41:09.001Z,16.75
2023-10-11T14:44:11.537Z,14.52
2023-10-11T14:47:15.266Z,11.32
2023-10-11T14:50:24.429Z,11.93
2023-10-11T14:53:27.344Z,13.37
2023-10-11T14:56:30.226Z,13.93
2023-10-11T14:59:36.252Z,13.45
2023-10-11T15:02:38.746Z,13.75
2023-10-11T15:05:41.620Z,12.43
2023-10-11T15:08:44.842Z,10.40
2023-10-11T15:11:49.078Z,15.35
2023-10-11T15:14:51.691Z,13.93
2023-10-11T15:17:55.340Z,14.15
2023-10-11T15:20:57.853Z,11.57
2023-10-11T15:24:00.644Z,14.50
2023-10-11T15:27:03.028Z,13.13
2023-10-11T15:30:09.065Z,13.35
2023-10-11T15:33:14.052Z,12.75
2023-10-11T15:36:18.500Z,14.15
2023-10-11T15:39:21.151Z,14.67
2023-10-11T15:42:24.393Z,15.98
2023-10-11T15:45:27.001Z,16.15
2023-10-11T15:48:31.097Z,12.95
2023-10-11T15:51:34.341Z,14.90
2023-10-11T15:54:39.842Z,12.87
2023-10-11T15:57:43.489Z,14.73
2023-10-11T16:00:46.763Z,13.35
2023-10-11T16:03:53.763Z,16.05
2023-10-11T16:06:59.157Z,14.82
2023-10-11T16:10:03.286Z,25.40
2023-10-11T16:13:05.721Z,12.25
2023-10-11T16:16:08.824Z,13.57
2023-10-11T16:19:12.984Z,22.80
2023-10-11T16:22:15.789Z,10.38
2023-10-11T16:25:20.229Z,12.60
2023-10-11T16:28:27.237Z,13.88
2023-10-11T16:31:32.073Z,15.48
2023-10-11T16:34:34.864Z,20.67
2023-10-11T16:37:38.862Z,16.42
2023-10-11T16:40:41.612Z,9.23
2023-10-11T16:43:44.185Z,15.55
2023-10-11T16:46:47.402Z,12.18
2023-10-11T16:49:50.358Z,19.45
2023-10-11T16:52:53.143Z,15.13
2023-10-11T16:55:55.631Z,14.07
2023-10-11T16:58:59.359Z,10.82
2023-10-11T17:02:01.981Z,19.75
2023-10-11T17:05:07.504Z,14.57
2023-10-11T17:08:13.961Z,10.85
2023-10-11T17:11:16.771Z,17.07
2023-10-11T17:14:19.886Z,17.83
2023-10-11T17:17:23.012Z,16.87
2023-10-11T17:20:26.058Z,12.70
2023-10-11T17:23:28.765Z,18.80
2023-10-11T17:26:33.596Z,12.57
2023-10-11T17:29:37.313Z,13.05
2023-10-11T17:32:42.429Z,14.82
2023-10-11T17:35:46.822Z,20.00
2023-10-11T17:38:49.356Z,16.98
2023-10-11T17:41:52.328Z,10.30
2023-10-11T17:44:55.216Z,14.35
2023-10-11T17:47:58.417Z,13.30
2023-10-11T17:51:01.360Z,13.70
2023-10-11T17:54:04.562Z,13.85
2023-10-11T17:57:07.354Z,21.30
2023-10-11T18:00:12.123Z,16.30
2023-10-11T18:03:14.987Z,18.35
2023-10-11T18:06:18.751Z,14.40
2023-10-11T18:09:21.751Z,18.23
2023-10-11T18:12:24.251Z,11.03
2023-10-11T18:15:36.755Z,15.15
2023-10-11T18:18:40.497Z,15.32
2023-10-11T18:21:45.005Z,14.85
2023-10-11T18:24:47.486Z,14.13
2023-10-11T18:27:58.328Z,16.73
2023-10-11T18:31:08.336Z,12.35
2023-10-11T18:34:11.653Z,17.80
2023-10-11T18:37:14.345Z,20.23
2023-10-11T18:40:31.340Z,13.85
2023-10-11T18:43:33.879Z,15.43
2023-10-11T18:46:37.074Z,16.83
2023-10-11T18:49:39.463Z,14.70
2023-10-11T18:52:43.377Z,21.10
2023-10-11T18:55:46.772Z,11.12
2023-10-11T18:58:49.507Z,18.03
2023-10-11T19:01:51.948Z,13.95
2023-10-11T19:04:58.302Z,18.23
2023-10-11T19:08:00.867Z,18.17
2023-10-11T19:11:12.669Z,23.08
2023-10-11T19:14:18.343Z,15.37
2023-10-11T19:17:21.252Z,16.33
2023-10-11T19:20:28.888Z,25.48
2023-10-11T19:23:35.597Z,14.73
2023-10-11T19:26:41.024Z,14.70
2023-10-11T19:29:44.012Z,15.23
2023-10-11T19:32:46.598Z,13.27
2023-10-11T19:35:49.520Z,16.27
2023-10-11T19:38:52.266Z,17.42
2023-10-11T19:41:54.954Z,14.43
2023-10-11T19:44:57.634Z,14.40
2023-10-11T19:48:01.072Z,13.30
2023-10-11T19:51:04.104Z,17.95
2023-10-11T19:54:07.419Z,18.00
2023-10-11T19:57:09.909Z,13.88
2023-10-11T20:00:13.898Z,12.33
2023-10-11T20:03:16.785Z,13.50
2023-10-11T20:06:19.430Z,14.55
2023-10-11T20:09:24.523Z,18.70
2023-10-11T20:12:27.069Z,13.93
2023-10-11T20:15:30.838Z,11.73
2023-10-11T20:18:33.314Z,14.30
2023-10-11T20:21:37.299Z,16.98
2023-10-11T20:24:40.283Z,16.02
2023-10-11T20:27:49.918Z,11.18
2023-10-11T20:30:52.614Z,14.53
2023-10-11T20:33:58.578Z,17.60
2023-10-11T20:37:01.370Z,13.80
2023-10-11T20:40:23.078Z,11.80
2023-10-11T20:43:25.747Z,13.40
2023-10-11T20:46:28.542Z,15.10
2023-10-11T20:49:31.044Z,15.82
2023-10-11T20:52:34.977Z,15.80
2023-10-11T20:55:40.312Z,12.85
2023-10-11T20:58:56.630Z,13.70
2023-10-11T21:01:59.366Z,13.57
2023-10-11T21:05:02.106Z,12.10
2023-10-11T21:08:05.272Z,14.00
2023-10-11T21:11:07.954Z,14.80
2023-10-11T21:14:10.308Z,14.15
2023-10-11T21:17:13.021Z,12.50
2023-10-11T21:20:18.843Z,15.10
2023-10-11T21:23:22.881Z,11.18
2023-10-11T21:26:25.491Z,14.20
2023-10-11T21:29:28.373Z,20.17
2023-10-11T21:32:30.810Z,13.23
2023-10-11T21:35:35.781Z,13.48
2023-10-11T21:38:38.204Z,15.27
2023-10-11T21:41:43.215Z,10.55
2023-10-11T21:44:47.418Z,12.20
2023-10-11T21:47:50.308Z,11.37
2023-10-11T21:50:53.444Z,14.75
2023-10-11T21:53:56.388Z,13.62
2023-10-11T21:56:58.745Z,11.70
2023-10-11T22:00:01.871Z,13.25
2023-10-11T22:03:04.673Z,17.30
2023-10-11T22:06:07.546Z,13.65
2023-10-11T22:09:10.018Z,13.02
2023-10-11T22:12:15.207Z,16.23
2023-10-11T22:15:23.816Z,11.27
2023-10-11T22:18:30.456Z,16.10
2023-10-11T22:21:40.822Z,13.07
2023-10-11T22:24:45.922Z,13.15
2023-10-11T22:27:49.287Z,18.33
2023-10-11T22:30:52.075Z,14.80
2023-10-11T22:33:56.016Z,11.87
2023-10-11T22:37:01.205Z,12.75
2023-10-11T22:40:04.653Z,17.45
2023-10-11T22:43:25.680Z,13.80
2023-10-11T22:46:30.130Z,18.98
2023-10-11T22:49:33.173Z,13.10
2023-10-11T22:52:35.857Z,14.75
2023-10-11T22:55:42.338Z,13.68
2023-10-11T22:58:45.243Z,17.08
2023-10-11T23:01:48.937Z,19.15
2023-10-11T23:04:55.255Z,23.37
2023-10-11T23:07:58.834Z,20.35
2023-10-11T23:11:13.552Z,15.43
2023-10-11T23:14:16.299Z,18.67
2023-10-11T23:17:18.722Z,20.85
2023-10-11T23:20:21.508Z,16.50
2023-10-11T23:23:49.007Z,16.98
2023-10-11T23:26:54.353Z,16.90
2023-10-11T23:30:00.132Z,18.33
2023-10-11T23:33:16.576Z,17.55
2023-10-11T23:36:25.958Z,21.23
2023-10-11T23:39:36.087Z,19.67
2023-10-11T23:42:40.510Z,18.12
2023-10-11T23:45:54.626Z,15.38
2023-10-11T23:49:07.298Z,20.98
2023-10-11T23:52:14.734Z,21.93
2023-10-11T23:55:24.977Z,20.27
2023-10-11T23:58:31.463Z,20.75
